EDT,Max TemperatureF,Mean TemperatureF,Min TemperatureF,Max Dew PointF,MeanDew PointF,Min DewpointF,Max Humidity, Mean Humidity, Min Humidity, Max Sea Level PressureIn, Mean Sea Level PressureIn, Min Sea Level PressureIn, Max VisibilityMiles, Mean VisibilityMiles, Min VisibilityMiles, Max Wind SpeedMPH, Mean Wind SpeedMPH, Max Gust SpeedMPH,PrecipitationIn, CloudCover, Events, WindDirDegrees
2013-6-1,88,77,65,67,64,63,93,68,43,30.14,30.09,30.00,10,9,7,13,4,20,0.00,3,,172
2013-6-2,86,76,66,73,67,64,100,83,65,30.02,29.97,29.89,10,8,0,16,5,28,0.46,5,Fog-Rain,197
2013-6-3,87,77,67,71,68,64,100,76,51,29.97,29.93,29.86,10,5,0,10,2,15,T,5,Fog-Rain,281
2013-6-4,87,77,66,70,66,63,93,72,50,30.01,29.98,29.93,10,9,6,9,4,23,0.00,3,,74
2013-6-5,84,77,69,73,70,67,97,83,69,30.07,30.01,29.93,9,5,0,17,6,25,1.49,7,Fog-Rain,80
2013-6-6,76,72,67,71,68,66,100,91,82,29.97,29.89,29.78,10,5,1,12,4,16,1.01,8,Rain-Thunderstorm,92
2013-6-7,86,77,67,72,68,66,100,78,55,29.87,29.75,29.68,10,7,1,21,4,31,0.23,6,Rain,298
2013-6-8,84,75,66,69,66,64,100,79,58,30.09,29.97,29.85,7,5,2,9,3,13,0.00,5,,242
2013-6-9,88,78,68,74,70,67,97,76,55,30.12,30.07,30.03,10,6,0,12,3,23,1.52,5,Fog-Rain,168
2013-6-10,78,72,65,72,68,64,100,94,87,30.07,30.03,29.95,9,5,0,24,5,32,1.46,7,Fog-Rain,221
2013-6-11,90,80,70,72,70,69,100,76,52,30.05,30.01,29.95,9,7,2,15,6,24,T,5,Rain,259
2013-6-12,95,83,70,74,72,69,100,75,49,30.04,29.99,29.95,9,6,3,12,4,16,0.00,0,,295
2013-6-13,93,82,70,74,70,66,93,69,44,29.95,29.85,29.75,10,7,2,32,7,45,0.12,1,Rain-Thunderstorm,272
2013-6-14,86,77,67,69,63,56,97,67,37,30.01,29.91,29.82,10,9,5,10,4,15,0.00,1,,33
2013-6-15,86,74,61,62,60,56,90,64,37,30.13,30.09,30.03,10,10,7,9,3,13,0.00,1,,94
2013-6-16,88,76,63,69,66,60,93,72,50,30.17,30.09,30.03,10,8,5,9,3,14,0.00,2,,194
2013-6-17,88,78,68,73,69,66,97,79,61,30.11,30.04,29.96,10,6,1,20,3,29,0.46,5,Rain-Thunderstorm,261
2013-6-18,83,76,68,75,70,66,100,85,69,29.98,29.91,29.85,10,5,0,20,5,33,0.97,6,Fog-Rain-Thunderstorm,241
2013-6-19,82,76,69,72,70,68,97,82,67,30.09,29.98,29.90,10,7,3,13,4,17,0.02,6,Rain,66
2013-6-20,84,75,65,68,66,63,100,76,51,30.20,30.16,30.09,9,7,4,16,6,21,0.00,2,,80
2013-6-21,85,75,64,66,64,63,93,72,51,30.25,30.20,30.16,9,8,5,13,5,16,0.00,1,,71
2013-6-22,86,75,63,67,64,61,93,72,51,30.22,30.17,30.11,9,8,7,12,4,14,0.00,1,,65
2013-6-23,87,76,65,72,68,64,100,79,57,30.22,30.16,30.12,10,8,5,9,1,15,T,2,,176
2013-6-24,88,78,68,75,70,66,97,77,57,30.23,30.17,30.11,10,8,1,10,3,16,0.16,3,Rain-Thunderstorm,254
2013-6-25,88,78,68,73,69,67,97,76,55,30.17,30.11,30.05,10,7,1,14,3,20,0.15,3,Rain-Thunderstorm,255
2013-6-26,89,80,70,75,72,69,100,79,57,30.08,30.02,29.94,8,7,6,13,3,18,T,1,,258
2013-6-27,89,81,73,74,72,71,94,77,59,29.99,29.89,29.81,10,8,6,13,6,20,0.00,2,,256
2013-6-28,93,82,71,73,70,67,93,69,44,29.85,29.76,29.65,10,9,5,17,6,26,T,1,Rain,258
2013-6-29,88,79,70,73,70,67,93,74,55,29.74,29.70,29.65,10,8,2,16,3,26,0.03,5,Rain,241
2013-6-30,85,78,70,73,70,68,100,80,59,29.82,29.76,29.70,10,6,1,13,3,,0.13,5,Rain-Thunderstorm,171